sensor_id;sensor_type;location;lat;lon;timestamp;P1;durP1;ratioP1;P2;durP2;ratioP2
70075;SDS011;63241;51.056;3.698;2023-03-14T00:00:26;14.47;;;2.22;;
70075;SDS011;63241;51.056;3.698;2023-03-14T00:02:54;14.10;;;4.33;;
70075;SDS011;63241;51.056;3.698;2023-03-14T00:08:50;11.90;;;3.00;;
70075;SDS011;63241;51.056;3.698;2023-03-14T00:11:22;8.53;;;2.37;;
70075;SDS011;63241;51.056;3.698;2023-03-14T00:13:51;8.18;;;1.87;;
70075;SDS011;63241;51.056;3.698;2023-03-14T00:16:19;10.35;;;2.35;;
70075;SDS011;63241;51.056;3.698;2023-03-14T00:19:04;10.88;;;2.17;;
70075;SDS011;63241;51.056;3.698;2023-03-14T00:21:38;11.00;;;2.27;;
70075;SDS011;63241;51.056;3.698;2023-03-14T00:24:33;9.70;;;2.33;;
70075;SDS011;63241;51.056;3.698;2023-03-14T00:27:01;8.08;;;1.67;;
70075;SDS011;63241;51.056;3.698;2023-03-14T00:29:28;8.25;;;2.22;;
70075;SDS011;63241;51.056;3.698;2023-03-14T00:31:56;11.57;;;2.25;;
70075;SDS011;63241;51.056;3.698;2023-03-14T00:40:43;9.75;;;2.62;;
70075;SDS011;63241;51.056;3.698;2023-03-14T00:43:11;13.72;;;2.87;;
70075;SDS011;63241;51.056;3.698;2023-03-14T00:45:38;12.00;;;2.80;;
70075;SDS011;63241;51.056;3.698;2023-03-14T00:54:09;14.20;;;2.55;;
70075;SDS011;63241;51.056;3.698;2023-03-14T00:56:36;13.83;;;2.75;;
70075;SDS011;63241;51.056;3.698;2023-03-14T00:59:04;11.45;;;2.35;;
70075;SDS011;63241;51.056;3.698;2023-03-14T01:04:53;13.60;;;2.92;;
70075;SDS011;63241;51.056;3.698;2023-03-14T01:07:33;12.98;;;2.12;;
70075;SDS011;63241;51.056;3.698;2023-03-14T01:10:00;11.25;;;2.52;;
70075;SDS011;63241;51.056;3.698;2023-03-14T01:12:29;14.53;;;2.87;;
70075;SDS011;63241;51.056;3.698;2023-03-14T01:20:38;16.60;;;3.10;;
70075;SDS011;63241;51.056;3.698;2023-03-14T01:23:05;17.60;;;3.10;;
70075;SDS011;63241;51.056;3.698;2023-03-14T01:25:33;12.43;;;3.22;;
70075;SDS011;63241;51.056;3.698;2023-03-14T01:33:44;10.75;;;2.58;;
70075;SDS011;63241;51.056;3.698;2023-03-14T01:36:12;17.42;;;2.85;;
70075;SDS011;63241;51.056;3.698;2023-03-14T01:38:41;15.50;;;2.55;;
70075;SDS011;63241;51.056;3.698;2023-03-14T01:47:20;15.45;;;2.50;;
70075;SDS011;63241;51.056;3.698;2023-03-14T01:49:50;9.28;;;2.45;;
70075;SDS011;63241;51.056;3.698;2023-03-14T01:52:20;14.93;;;3.00;;
70075;SDS011;63241;51.056;3.698;2023-03-14T02:00:59;13.75;;;2.75;;
70075;SDS011;63241;51.056;3.698;2023-03-14T02:03:29;11.10;;;2.92;;
70075;SDS011;63241;51.056;3.698;2023-03-14T02:05:59;10.20;;;2.50;;
70075;SDS011;63241;51.056;3.698;2023-03-14T02:11:41;12.40;;;2.50;;
70075;SDS011;63241;51.056;3.698;2023-03-14T02:14:16;12.43;;;2.77;;
70075;SDS011;63241;51.056;3.698;2023-03-14T02:16:53;15.32;;;2.50;;
70075;SDS011;63241;51.056;3.698;2023-03-14T02:19:23;9.95;;;2.35;;
70075;SDS011;63241;51.056;3.698;2023-03-14T02:28:15;7.70;;;1.67;;
70075;SDS011;63241;51.056;3.698;2023-03-14T02:30:43;7.95;;;1.90;;
70075;SDS011;63241;51.056;3.698;2023-03-14T02:33:12;6.08;;;1.37;;
70075;SDS011;63241;51.056;3.698;2023-03-14T02:41:48;4.80;;;1.47;;
70075;SDS011;63241;51.056;3.698;2023-03-14T02:44:16;8.15;;;1.55;;
70075;SDS011;63241;51.056;3.698;2023-03-14T02:46:43;9.08;;;1.20;;
70075;SDS011;63241;51.056;3.698;2023-03-14T02:49:19;5.78;;;1.80;;
70075;SDS011;63241;51.056;3.698;2023-03-14T02:54:59;5.78;;;1.10;;
70075;SDS011;63241;51.056;3.698;2023-03-14T02:57:27;7.72;;;1.50;;
70075;SDS011;63241;51.056;3.698;2023-03-14T02:59:58;8.80;;;1.60;;
70075;SDS011;63241;51.056;3.698;2023-03-14T03:08:42;9.95;;;2.25;;
70075;SDS011;63241;51.056;3.698;2023-03-14T03:11:10;6.22;;;2.37;;
70075;SDS011;63241;51.056;3.698;2023-03-14T03:13:38;9.15;;;2.60;;
70075;SDS011;63241;51.056;3.698;2023-03-14T03:19:52;9.13;;;2.85;;
70075;SDS011;63241;51.056;3.698;2023-03-14T03:22:20;10.90;;;2.72;;
70075;SDS011;63241;51.056;3.698;2023-03-14T03:24:48;9.03;;;3.37;;
70075;SDS011;63241;51.056;3.698;2023-03-14T03:27:16;8.63;;;2.00;;
70075;SDS011;63241;51.056;3.698;2023-03-14T03:29:51;9.13;;;2.37;;
70075;SDS011;63241;51.056;3.698;2023-03-14T03:32:59;13.45;;;3.30;;
70075;SDS011;63241;51.056;3.698;2023-03-14T03:35:45;8.70;;;2.70;;
70075;SDS011;63241;51.056;3.698;2023-03-14T03:38:11;9.45;;;2.60;;
70075;SDS011;63241;51.056;3.698;2023-03-14T03:46:02;9.85;;;3.02;;
70075;SDS011;63241;51.056;3.698;2023-03-14T03:48:31;11.70;;;3.12;;
70075;SDS011;63241;51.056;3.698;2023-03-14T03:51:01;11.08;;;3.17;;
70075;SDS011;63241;51.056;3.698;2023-03-14T03:56:24;10.53;;;3.40;;
70075;SDS011;63241;51.056;3.698;2023-03-14T03:58:52;9.93;;;3.50;;
70075;SDS011;63241;51.056;3.698;2023-03-14T04:01:20;9.93;;;3.52;;
70075;SDS011;63241;51.056;3.698;2023-03-14T04:10:00;12.23;;;3.80;;
70075;SDS011;63241;51.056;3.698;2023-03-14T04:12:27;11.08;;;4.05;;
70075;SDS011;63241;51.056;3.698;2023-03-14T04:14:55;10.15;;;4.10;;
70075;SDS011;63241;51.056;3.698;2023-03-14T04:23:18;11.53;;;4.30;;
70075;SDS011;63241;51.056;3.698;2023-03-14T04:25:45;7.00;;;3.65;;
70075;SDS011;63241;51.056;3.698;2023-03-14T04:28:13;7.72;;;3.47;;
70075;SDS011;63241;51.056;3.698;2023-03-14T04:30:42;11.50;;;4.12;;
70075;SDS011;63241;51.056;3.698;2023-03-14T04:36:47;8.70;;;3.60;;
70075;SDS011;63241;51.056;3.698;2023-03-14T04:39:15;7.78;;;3.20;;
70075;SDS011;63241;51.056;3.698;2023-03-14T04:41:43;9.40;;;3.50;;
70075;SDS011;63241;51.056;3.698;2023-03-14T04:44:11;11.30;;;3.42;;
70075;SDS011;63241;51.056;3.698;2023-03-14T04:50:05;14.33;;;5.58;;
70075;SDS011;63241;51.056;3.698;2023-03-14T04:52:37;9.45;;;3.90;;
70075;SDS011;63241;51.056;3.698;2023-03-14T04:55:05;16.65;;;5.12;;
70075;SDS011;63241;51.056;3.698;2023-03-14T04:57:32;14.58;;;6.67;;
70075;SDS011;63241;51.056;3.698;2023-03-14T05:03:44;9.85;;;4.12;;
70075;SDS011;63241;51.056;3.698;2023-03-14T05:06:17;13.20;;;6.40;;
70075;SDS011;63241;51.056;3.698;2023-03-14T05:08:45;10.08;;;2.85;;
70075;SDS011;63241;51.056;3.698;2023-03-14T05:11:13;5.62;;;2.52;;
70075;SDS011;63241;51.056;3.698;2023-03-14T05:17:36;5.33;;;1.70;;
70075;SDS011;63241;51.056;3.698;2023-03-14T05:20:00;8.48;;;2.35;;
70075;SDS011;63241;51.056;3.698;2023-03-14T05:22:30;7.55;;;1.65;;
70075;SDS011;63241;51.056;3.698;2023-03-14T05:24:58;7.12;;;2.60;;
70075;SDS011;63241;51.056;3.698;2023-03-14T05:27:46;5.80;;;2.15;;
70075;SDS011;63241;51.056;3.698;2023-03-14T05:31:20;5.67;;;1.90;;
70075;SDS011;63241;51.056;3.698;2023-03-14T05:33:48;10.75;;;2.50;;
70075;SDS011;63241;51.056;3.698;2023-03-14T05:36:15;8.40;;;2.70;;
70075;SDS011;63241;51.056;3.698;2023-03-14T05:38:43;8.73;;;2.10;;
70075;SDS011;63241;51.056;3.698;2023-03-14T05:46:58;12.55;;;3.50;;
70075;SDS011;63241;51.056;3.698;2023-03-14T05:49:25;12.60;;;4.10;;
70075;SDS011;63241;51.056;3.698;2023-03-14T05:51:53;14.78;;;4.47;;
70075;SDS011;63241;51.056;3.698;2023-03-14T05:57:48;14.95;;;4.47;;
70075;SDS011;63241;51.056;3.698;2023-03-14T06:00:15;16.40;;;5.72;;
70075;SDS011;63241;51.056;3.698;2023-03-14T06:02:44;16.45;;;5.03;;
70075;SDS011;63241;51.056;3.698;2023-03-14T06:05:11;13.60;;;4.60;;
70075;SDS011;63241;51.056;3.698;2023-03-14T06:13:57;9.85;;;3.00;;
70075;SDS011;63241;51.056;3.698;2023-03-14T06:16:25;14.30;;;3.55;;
70075;SDS011;63241;51.056;3.698;2023-03-14T06:18:52;6.50;;;2.70;;
70075;SDS011;63241;51.056;3.698;2023-03-14T06:24:48;9.63;;;3.20;;
70075;SDS011;63241;51.056;3.698;2023-03-14T06:27:18;14.33;;;3.58;;
70075;SDS011;63241;51.056;3.698;2023-03-14T06:29:46;13.93;;;3.37;;
70075;SDS011;63241;51.056;3.698;2023-03-14T06:32:13;16.73;;;3.80;;
70075;SDS011;63241;51.056;3.698;2023-03-14T06:40:36;24.07;;;4.80;;
70075;SDS011;63241;51.056;3.698;2023-03-14T06:43:04;13.62;;;4.30;;
70075;SDS011;63241;51.056;3.698;2023-03-14T06:45:31;14.80;;;4.50;;
70075;SDS011;63241;51.056;3.698;2023-03-14T06:48:04;15.88;;;4.70;;
70075;SDS011;63241;51.056;3.698;2023-03-14T06:51:09;14.53;;;4.65;;
70075;SDS011;63241;51.056;3.698;2023-03-14T06:53:40;21.40;;;5.97;;
70075;SDS011;63241;51.056;3.698;2023-03-14T06:56:08;16.17;;;6.58;;
70075;SDS011;63241;51.056;3.698;2023-03-14T06:58:35;20.15;;;6.20;;
70075;SDS011;63241;51.056;3.698;2023-03-14T07:01:10;17.25;;;7.05;;
70075;SDS011;63241;51.056;3.698;2023-03-14T07:04:23;23.38;;;6.87;;
70075;SDS011;63241;51.056;3.698;2023-03-14T07:06:59;16.10;;;6.85;;
70075;SDS011;63241;51.056;3.698;2023-03-14T07:09:27;22.35;;;7.08;;
70075;SDS011;63241;51.056;3.698;2023-03-14T07:11:55;19.90;;;7.10;;
70075;SDS011;63241;51.056;3.698;2023-03-14T07:20:39;13.88;;;5.92;;
70075;SDS011;63241;51.056;3.698;2023-03-14T07:23:06;19.98;;;6.78;;
70075;SDS011;63241;51.056;3.698;2023-03-14T07:25:34;22.50;;;9.73;;
70075;SDS011;63241;51.056;3.698;2023-03-14T07:28:04;16.25;;;6.12;;
70075;SDS011;63241;51.056;3.698;2023-03-14T07:30:42;19.02;;;6.15;;
70075;SDS011;63241;51.056;3.698;2023-03-14T07:36:16;13.25;;;3.87;;
70075;SDS011;63241;51.056;3.698;2023-03-14T07:38:44;11.85;;;4.58;;
70075;SDS011;63241;51.056;3.698;2023-03-14T07:41:12;11.40;;;3.90;;
70075;SDS011;63241;51.056;3.698;2023-03-14T07:43:48;13.58;;;4.20;;
70075;SDS011;63241;51.056;3.698;2023-03-14T07:49:25;11.00;;;4.28;;
70075;SDS011;63241;51.056;3.698;2023-03-14T07:51:53;11.53;;;5.03;;
70075;SDS011;63241;51.056;3.698;2023-03-14T07:54:21;15.78;;;5.22;;
70075;SDS011;63241;51.056;3.698;2023-03-14T08:02:59;19.17;;;5.50;;
70075;SDS011;63241;51.056;3.698;2023-03-14T08:05:27;13.28;;;4.67;;
70075;SDS011;63241;51.056;3.698;2023-03-14T08:07:55;17.37;;;4.90;;
70075;SDS011;63241;51.056;3.698;2023-03-14T08:10:24;15.68;;;5.72;;
70075;SDS011;63241;51.056;3.698;2023-03-14T08:16:05;15.68;;;5.72;;
70075;SDS011;63241;51.056;3.698;2023-03-14T08:18:34;13.15;;;5.83;;
70075;SDS011;63241;51.056;3.698;2023-03-14T08:21:01;10.20;;;5.28;;
70075;SDS011;63241;51.056;3.698;2023-03-14T08:23:31;12.68;;;5.65;;
70075;SDS011;63241;51.056;3.698;2023-03-14T08:26:12;11.48;;;5.95;;
70075;SDS011;63241;51.056;3.698;2023-03-14T08:28:51;20.30;;;6.10;;
70075;SDS011;63241;51.056;3.698;2023-03-14T08:31:18;12.55;;;5.72;;
70075;SDS011;63241;51.056;3.698;2023-03-14T08:33:46;20.45;;;6.28;;
70075;SDS011;63241;51.056;3.698;2023-03-14T08:42:42;17.23;;;5.10;;
70075;SDS011;63241;51.056;3.698;2023-03-14T08:45:11;13.98;;;6.95;;
70075;SDS011;63241;51.056;3.698;2023-03-14T08:47:40;9.60;;;4.70;;
70075;SDS011;63241;51.056;3.698;2023-03-14T08:56:13;16.25;;;3.80;;
70075;SDS011;63241;51.056;3.698;2023-03-14T08:58:41;17.50;;;4.30;;
70075;SDS011;63241;51.056;3.698;2023-03-14T09:01:10;13.20;;;3.98;;
70075;SDS011;63241;51.056;3.698;2023-03-14T09:03:45;15.72;;;4.10;;
70075;SDS011;63241;51.056;3.698;2023-03-14T09:09:36;17.98;;;4.60;;
70075;SDS011;63241;51.056;3.698;2023-03-14T09:12:04;15.20;;;4.47;;
70075;SDS011;63241;51.056;3.698;2023-03-14T09:14:32;19.50;;;5.15;;
70075;SDS011;63241;51.056;3.698;2023-03-14T09:17:00;21.77;;;4.35;;
70075;SDS011;63241;51.056;3.698;2023-03-14T09:22:54;12.25;;;3.50;;
70075;SDS011;63241;51.056;3.698;2023-03-14T09:27:49;12.98;;;3.40;;
70075;SDS011;63241;51.056;3.698;2023-03-14T09:30:17;15.45;;;3.60;;
70075;SDS011;63241;51.056;3.698;2023-03-14T09:35:58;11.78;;;3.42;;
70075;SDS011;63241;51.056;3.698;2023-03-14T09:38:26;12.00;;;3.22;;
70075;SDS011;63241;51.056;3.698;2023-03-14T09:40:54;18.55;;;4.03;;
70075;SDS011;63241;51.056;3.698;2023-03-14T09:43:24;15.00;;;3.08;;
70075;SDS011;63241;51.056;3.698;2023-03-14T09:51:57;15.23;;;2.75;;
70075;SDS011;63241;51.056;3.698;2023-03-14T09:54:39;9.33;;;2.10;;
70075;SDS011;63241;51.056;3.698;2023-03-14T09:57:15;10.58;;;2.92;;
70075;SDS011;63241;51.056;3.698;2023-03-14T10:14:09;13.30;;;2.72;;
70075;SDS011;63241;51.056;3.698;2023-03-14T10:16:43;6.70;;;1.30;;
70075;SDS011;63241;51.056;3.698;2023-03-14T10:19:12;11.00;;;2.00;;
70075;SDS011;63241;51.056;3.698;2023-03-14T10:21:43;4.75;;;1.45;;
70075;SDS011;63241;51.056;3.698;2023-03-14T10:27:29;12.53;;;1.98;;
70075;SDS011;63241;51.056;3.698;2023-03-14T10:30:00;9.60;;;1.62;;
70075;SDS011;63241;51.056;3.698;2023-03-14T10:32:37;7.20;;;2.12;;
70075;SDS011;63241;51.056;3.698;2023-03-14T10:41:14;6.92;;;2.30;;
70075;SDS011;63241;51.056;3.698;2023-03-14T10:43:57;6.08;;;1.70;;
70075;SDS011;63241;51.056;3.698;2023-03-14T10:46:23;5.83;;;2.10;;
70075;SDS011;63241;51.056;3.698;2023-03-14T10:49:01;9.15;;;2.22;;
70075;SDS011;63241;51.056;3.698;2023-03-14T10:51:53;6.00;;;1.87;;
70075;SDS011;63241;51.056;3.698;2023-03-14T10:54:29;7.78;;;2.00;;
70075;SDS011;63241;51.056;3.698;2023-03-14T10:56:57;8.90;;;2.90;;
70075;SDS011;63241;51.056;3.698;2023-03-14T10:59:27;7.85;;;2.52;;
70075;SDS011;63241;51.056;3.698;2023-03-14T11:02:07;12.05;;;3.55;;
70075;SDS011;63241;51.056;3.698;2023-03-14T11:08:15;9.10;;;1.70;;
70075;SDS011;63241;51.056;3.698;2023-03-14T11:10:51;5.17;;;1.57;;
70075;SDS011;63241;51.056;3.698;2023-03-14T11:15:58;10.53;;;1.75;;
70075;SDS011;63241;51.056;3.698;2023-03-14T11:19:08;8.33;;;1.87;;
70075;SDS011;63241;51.056;3.698;2023-03-14T11:25:29;9.45;;;2.80;;
70075;SDS011;63241;51.056;3.698;2023-03-14T11:27:27;11.48;;;2.75;;
70075;SDS011;63241;51.056;3.698;2023-03-14T11:30:05;6.90;;;2.35;;
70075;SDS011;63241;51.056;3.698;2023-03-14T11:33:16;15.72;;;6.05;;
70075;SDS011;63241;51.056;3.698;2023-03-14T11:35:53;13.35;;;3.50;;
70075;SDS011;63241;51.056;3.698;2023-03-14T11:40:54;13.48;;;4.70;;
70075;SDS011;63241;51.056;3.698;2023-03-14T11:43:34;10.82;;;3.52;;
70075;SDS011;63241;51.056;3.698;2023-03-14T11:45:56;9.95;;;3.20;;
70075;SDS011;63241;51.056;3.698;2023-03-14T11:51:12;20.25;;;3.12;;
70075;SDS011;63241;51.056;3.698;2023-03-14T11:53:53;16.07;;;2.52;;
70075;SDS011;63241;51.056;3.698;2023-03-14T11:56:24;18.80;;;3.72;;
70075;SDS011;63241;51.056;3.698;2023-03-14T11:58:51;16.35;;;3.22;;
70075;SDS011;63241;51.056;3.698;2023-03-14T12:01:19;19.10;;;2.90;;
70075;SDS011;63241;51.056;3.698;2023-03-14T12:06:34;13.22;;;2.85;;
70075;SDS011;63241;51.056;3.698;2023-03-14T12:09:18;21.37;;;3.10;;
70075;SDS011;63241;51.056;3.698;2023-03-14T12:11:52;14.75;;;3.72;;
70075;SDS011;63241;51.056;3.698;2023-03-14T12:14:28;26.50;;;4.87;;
70075;SDS011;63241;51.056;3.698;2023-03-14T12:16:59;22.10;;;3.30;;
70075;SDS011;63241;51.056;3.698;2023-03-14T12:19:34;28.50;;;7.62;;
70075;SDS011;63241;51.056;3.698;2023-03-14T12:22:12;17.32;;;4.20;;
70075;SDS011;63241;51.056;3.698;2023-03-14T12:24:44;16.60;;;4.37;;
70075;SDS011;63241;51.056;3.698;2023-03-14T12:30:23;30.30;;;4.67;;
70075;SDS011;63241;51.056;3.698;2023-03-14T12:35:38;23.77;;;3.72;;
70075;SDS011;63241;51.056;3.698;2023-03-14T12:38:14;28.27;;;5.20;;
70075;SDS011;63241;51.056;3.698;2023-03-14T12:41:03;24.47;;;4.35;;
70075;SDS011;63241;51.056;3.698;2023-03-14T12:43:25;25.23;;;4.70;;
70075;SDS011;63241;51.056;3.698;2023-03-14T12:46:41;26.57;;;4.25;;
70075;SDS011;63241;51.056;3.698;2023-03-14T12:48:34;24.75;;;4.62;;
70075;SDS011;63241;51.056;3.698;2023-03-14T12:51:05;30.72;;;4.12;;
70075;SDS011;63241;51.056;3.698;2023-03-14T12:54:00;34.43;;;4.22;;
70075;SDS011;63241;51.056;3.698;2023-03-14T12:56:27;20.95;;;3.72;;
70075;SDS011;63241;51.056;3.698;2023-03-14T13:01:59;21.52;;;3.58;;
70075;SDS011;63241;51.056;3.698;2023-03-14T13:04:37;13.93;;;2.65;;
70075;SDS011;63241;51.056;3.698;2023-03-14T13:07:02;24.30;;;3.67;;
70075;SDS011;63241;51.056;3.698;2023-03-14T13:12:11;17.15;;;2.67;;
70075;SDS011;63241;51.056;3.698;2023-03-14T13:14:44;17.77;;;2.98;;
70075;SDS011;63241;51.056;3.698;2023-03-14T13:17:15;14.28;;;2.72;;
70075;SDS011;63241;51.056;3.698;2023-03-14T13:19:44;24.67;;;4.65;;
70075;SDS011;63241;51.056;3.698;2023-03-14T13:22:17;19.23;;;3.72;;
70075;SDS011;63241;51.056;3.698;2023-03-14T13:24:49;20.02;;;3.60;;
70075;SDS011;63241;51.056;3.698;2023-03-14T13:27:20;21.85;;;4.45;;
70075;SDS011;63241;51.056;3.698;2023-03-14T13:29:50;26.25;;;5.40;;
70075;SDS011;63241;51.056;3.698;2023-03-14T13:32:22;19.02;;;3.70;;
70075;SDS011;63241;51.056;3.698;2023-03-14T13:34:51;17.57;;;3.37;;
70075;SDS011;63241;51.056;3.698;2023-03-14T13:37:21;21.07;;;4.37;;
70075;SDS011;63241;51.056;3.698;2023-03-14T13:39:50;23.18;;;5.25;;
70075;SDS011;63241;51.056;3.698;2023-03-14T13:42:21;28.60;;;3.95;;
70075;SDS011;63241;51.056;3.698;2023-03-14T13:44:54;17.17;;;3.42;;
70075;SDS011;63241;51.056;3.698;2023-03-14T13:47:24;14.53;;;3.55;;
70075;SDS011;63241;51.056;3.698;2023-03-14T13:49:53;20.37;;;3.02;;
70075;SDS011;63241;51.056;3.698;2023-03-14T13:52:37;16.75;;;3.72;;
70075;SDS011;63241;51.056;3.698;2023-03-14T13:55:05;12.55;;;2.40;;
70075;SDS011;63241;51.056;3.698;2023-03-14T13:57:53;24.52;;;3.15;;
70075;SDS011;63241;51.056;3.698;2023-03-14T14:00:22;13.93;;;3.10;;
70075;SDS011;63241;51.056;3.698;2023-03-14T14:02:55;11.70;;;2.77;;
70075;SDS011;63241;51.056;3.698;2023-03-14T14:05:26;17.62;;;2.20;;
70075;SDS011;63241;51.056;3.698;2023-03-14T14:07:57;14.58;;;2.37;;
70075;SDS011;63241;51.056;3.698;2023-03-14T14:10:25;7.90;;;1.95;;
70075;SDS011;63241;51.056;3.698;2023-03-14T14:12:57;12.93;;;2.33;;
70075;SDS011;63241;51.056;3.698;2023-03-14T14:15:27;8.73;;;1.67;;
70075;SDS011;63241;51.056;3.698;2023-03-14T14:18:01;12.25;;;1.95;;
70075;SDS011;63241;51.056;3.698;2023-03-14T14:20:33;9.90;;;2.52;;
70075;SDS011;63241;51.056;3.698;2023-03-14T14:23:04;9.05;;;2.37;;
70075;SDS011;63241;51.056;3.698;2023-03-14T14:25:33;9.28;;;2.65;;
70075;SDS011;63241;51.056;3.698;2023-03-14T14:28:14;6.72;;;1.77;;
70075;SDS011;63241;51.056;3.698;2023-03-14T14:31:00;7.10;;;1.52;;
70075;SDS011;63241;51.056;3.698;2023-03-14T14:33:30;5.15;;;1.00;;
70075;SDS011;63241;51.056;3.698;2023-03-14T14:36:12;6.92;;;1.32;;
70075;SDS011;63241;51.056;3.698;2023-03-14T14:38:48;5.20;;;1.12;;
70075;SDS011;63241;51.056;3.698;2023-03-14T14:41:16;6.83;;;1.75;;
70075;SDS011;63241;51.056;3.698;2023-03-14T14:43:43;6.10;;;1.55;;
70075;SDS011;63241;51.056;3.698;2023-03-14T14:46:13;3.58;;;1.45;;
70075;SDS011;63241;51.056;3.698;2023-03-14T14:48:42;6.05;;;1.40;;
70075;SDS011;63241;51.056;3.698;2023-03-14T14:51:10;8.25;;;1.52;;
70075;SDS011;63241;51.056;3.698;2023-03-14T14:53:39;13.53;;;2.42;;
70075;SDS011;63241;51.056;3.698;2023-03-14T14:56:18;4.50;;;1.50;;
70075;SDS011;63241;51.056;3.698;2023-03-14T14:58:48;7.97;;;1.52;;
70075;SDS011;63241;51.056;3.698;2023-03-14T15:01:17;6.22;;;1.37;;
70075;SDS011;63241;51.056;3.698;2023-03-14T15:03:48;12.65;;;2.52;;
70075;SDS011;63241;51.056;3.698;2023-03-14T15:06:19;6.85;;;1.98;;
70075;SDS011;63241;51.056;3.698;2023-03-14T15:08:48;8.03;;;1.90;;
70075;SDS011;63241;51.056;3.698;2023-03-14T15:11:16;8.38;;;1.82;;
70075;SDS011;63241;51.056;3.698;2023-03-14T15:13:46;11.73;;;2.00;;
70075;SDS011;63241;51.056;3.698;2023-03-14T15:16:15;12.98;;;2.45;;
70075;SDS011;63241;51.056;3.698;2023-03-14T15:18:44;17.48;;;3.02;;
70075;SDS011;63241;51.056;3.698;2023-03-14T15:21:15;12.63;;;3.02;;
70075;SDS011;63241;51.056;3.698;2023-03-14T15:23:42;10.55;;;2.12;;
70075;SDS011;63241;51.056;3.698;2023-03-14T15:26:11;7.80;;;1.87;;
70075;SDS011;63241;51.056;3.698;2023-03-14T15:28:41;8.18;;;2.12;;
70075;SDS011;63241;51.056;3.698;2023-03-14T15:31:09;8.68;;;2.00;;
70075;SDS011;63241;51.056;3.698;2023-03-14T15:33:38;7.97;;;2.05;;
70075;SDS011;63241;51.056;3.698;2023-03-14T15:36:07;7.08;;;1.62;;
70075;SDS011;63241;51.056;3.698;2023-03-14T15:38:51;8.53;;;2.17;;
70075;SDS011;63241;51.056;3.698;2023-03-14T15:41:20;13.55;;;2.98;;
70075;SDS011;63241;51.056;3.698;2023-03-14T15:43:48;6.17;;;1.70;;
70075;SDS011;63241;51.056;3.698;2023-03-14T15:46:17;12.05;;;2.45;;
70075;SDS011;63241;51.056;3.698;2023-03-14T15:48:44;11.50;;;2.35;;
70075;SDS011;63241;51.056;3.698;2023-03-14T15:51:12;10.08;;;2.42;;
70075;SDS011;63241;51.056;3.698;2023-03-14T15:53:40;15.88;;;2.40;;
70075;SDS011;63241;51.056;3.698;2023-03-14T15:56:13;14.73;;;2.80;;
70075;SDS011;63241;51.056;3.698;2023-03-14T15:58:43;14.25;;;2.92;;
70075;SDS011;63241;51.056;3.698;2023-03-14T16:01:15;11.53;;;2.80;;
70075;SDS011;63241;51.056;3.698;2023-03-14T16:03:43;18.62;;;3.27;;
70075;SDS011;63241;51.056;3.698;2023-03-14T16:06:12;16.87;;;3.15;;
70075;SDS011;63241;51.056;3.698;2023-03-14T16:08:40;13.00;;;3.00;;
70075;SDS011;63241;51.056;3.698;2023-03-14T16:11:08;16.25;;;2.58;;
